Time;durP1;ratioP1;P1;durP2;ratioP2;P2;SDS_P1;SDS_P2;PMS_P1;PMS_P2;Temp;Humidity;BMP_temperature;BMP_pressure;BME280_temperature;BME280_humidity;BME280_pressure;Samples;Min_cycle;Max_cycle;Signal;HPM_P1;HPM_P2
2022/06/21 00:07:28;;;;;;;14.48;1.98;;;;;;;13.58;77.17;101448.47;20944859;28;20053;-66
2022/06/21 00:17:50;;;;;;;8.27;1.60;;;;;;;13.41;77.41;101451.34;20947410;28;20066;-66
2022/06/21 00:28:15;;;;;;;12.68;1.85;;;;;;;13.29;78.15;101454.78;20937341;28;20067;-66
2022/06/21 00:38:37;;;;;;;9.55;1.90;;;;;;;13.14;78.55;101458.41;20948925;28;20041;-66
2022/06/21 00:49:00;;;;;;;9.52;1.80;;;;;;;13.18;79.11;101444.19;20941335;28;20048;-66
2022/06/21 00:59:28;;;;;;;21.27;2.00;;;;;;;13.31;79.65;101418.03;20936619;28;20047;-66
2022/06/21 01:09:57;;;;;;;8.75;1.70;;;;;;;13.24;78.62;101412.38;20952768;28;20044;-66
2022/06/21 01:20:22;;;;;;;7.55;1.60;;;;;;;13.16;79.52;101425.13;20946252;28;20062;-66
2022/06/21 01:30:48;;;;;;;14.57;1.70;;;;;;;13.01;79.58;101426.13;20943819;28;20048;-66
2022/06/21 01:41:15;;;;;;;9.88;1.83;;;;;;;12.99;79.69;101429.78;20935305;28;20059;-66
2022/06/21 01:51:57;;;;;;;7.72;1.73;;;;;;;13.00;81.99;101424.44;20944758;28;20543;-66
2022/06/21 02:02:23;;;;;;;7.80;1.80;;;;;;;12.87;80.16;101418.28;20954844;28;20056;-66
2022/06/21 02:12:51;;;;;;;12.75;1.92;;;;;;;12.80;80.46;101403.94;20946325;28;20401;-66
2022/06/21 02:23:16;;;;;;;8.90;1.90;;;;;;;12.68;80.53;101404.69;20944200;28;20090;-66
2022/06/21 02:33:41;;;;;;;9.57;1.95;;;;;;;12.73;80.30;101396.59;20968185;28;20444;-66
2022/06/21 02:44:43;;;;;;;14.15;2.20;;;;;;;12.71;80.79;101380.97;20972529;28;20044;-66
2022/06/21 02:55:20;;;;;;;6.57;1.67;;;;;;;12.60;79.25;101400.88;20961667;28;20063;-66
2022/06/21 03:05:42;;;;;;;13.27;2.80;;;;;;;12.53;80.22;101387.38;20964241;28;20615;-66
2022/06/21 03:16:07;;;;;;;;;;;;;;;12.60;86.48;101393.03;20967072;28;20501;-68
2022/06/21 03:26:29;;;;;;;9.95;2.03;;;;;;;12.52;80.02;101408.41;20953044;28;19947;-67
2022/06/21 03:36:51;;;;;;;9.27;2.03;;;;;;;12.35;82.63;101384.25;20934758;28;20389;-68
2022/06/21 03:47:35;;;;;;;7.70;2.25;;;;;;;12.40;83.78;101388.25;20947174;28;20091;-67
2022/06/21 03:58:28;;;;;;;14.13;2.38;;;;;;;12.23;84.82;101398.06;20948843;28;20036;-66
2022/06/21 04:09:32;;;;;;;5.70;2.08;;;;;;;12.20;82.48;101403.50;20969001;28;20040;-67
2022/06/21 04:20:20;;;;;;;6.18;2.25;;;;;;;12.43;84.01;101400.28;20774216;28;20052;-67
2022/06/21 04:31:02;;;;;;;6.97;2.25;;;;;;;12.63;84.09;101393.72;20941731;28;20436;-65
2022/06/21 04:41:34;;;;;;;8.63;2.50;;;;;;;12.73;80.94;101379.09;20941664;28;20131;-66
2022/06/21 04:52:05;;;;;;;11.00;1.95;;;;;;;12.93;81.35;101391.78;20939746;28;20496;-66
2022/06/21 05:02:33;;;;;;;11.70;2.80;;;;;;;13.16;79.84;101425.13;20928785;28;20048;-66
2022/06/21 05:12:59;;;;;;;6.70;2.50;;;;;;;13.48;79.50;101442.16;20943410;28;20470;-66
2022/06/21 05:23:23;;;;;;;11.35;2.63;;;;;;;13.58;79.75;101437.97;20940245;28;20052;-66
2022/06/21 05:33:49;;;;;;;10.73;2.70;;;;;;;13.61;79.14;101440.41;20947976;28;20043;-66
2022/06/21 05:44:36;;;;;;;8.65;2.53;;;;;;;13.80;80.44;101439.03;20935930;28;20371;-66
2022/06/21 05:55:04;;;;;;;10.93;2.70;;;;;;;14.07;78.66;101425.84;20932414;28;20379;-65
2022/06/21 06:05:31;;;;;;;10.07;2.15;;;;;;;14.40;77.04;101434.00;20939681;28;20048;-66
2022/06/21 06:15:56;;;;;;;8.02;1.80;;;;;;;14.74;75.06;101429.69;20969941;28;20037;-65
2022/06/21 06:26:38;;;;;;;10.90;2.05;;;;;;;15.05;74.73;101431.78;20938049;28;20052;-65
2022/06/21 06:37:36;;;;;;;8.88;1.55;;;;;;;15.19;75.22;101439.47;20949328;28;20047;-66
2022/06/21 06:48:06;;;;;;;6.40;1.40;;;;;;;15.28;72.28;101446.72;20929891;28;20045;-67
2022/06/21 06:58:59;;;;;;;8.50;1.70;;;;;;;15.49;75.25;101460.88;20937533;28;20044;-66
2022/06/21 07:09:38;;;;;;;8.63;1.70;;;;;;;15.85;73.10;101460.75;20965303;28;20045;-65
2022/06/21 07:20:00;;;;;;;5.20;1.45;;;;;;;15.88;72.07;101468.38;20939464;28;20135;-66
2022/06/21 07:30:28;;;;;;;6.13;1.50;;;;;;;15.96;70.94;101472.09;20958344;28;20045;-67
2022/06/21 07:40:58;;;;;;;8.25;1.33;;;;;;;16.19;72.89;101460.66;20956882;28;20068;-66
2022/06/21 07:51:25;;;;;;;7.30;1.50;;;;;;;16.29;70.42;101484.47;20952998;28;20056;-65
2022/06/21 08:12:45;;;;;;;7.00;1.58;;;;;;;16.75;68.64;101472.88;20952345;28;20041;-66
2022/06/21 08:23:17;;;;;;;4.07;1.20;;;;;;;16.57;69.01;101472.53;20937723;28;20047;-66
2022/06/21 08:34:00;;;;;;;8.37;1.43;;;;;;;16.85;70.71;101474.66;20968803;28;20052;-67
2022/06/21 08:44:49;;;;;;;10.13;1.45;;;;;;;17.06;66.49;101475.53;20939018;28;20057;-66
2022/06/21 08:55:23;;;;;;;4.82;1.30;;;;;;;17.37;66.32;101476.56;20958058;28;20050;-66
2022/06/21 09:06:03;;;;;;;7.28;1.65;;;;;;;17.33;66.88;101475.94;20948951;28;20137;-66
2022/06/21 09:16:41;;;;;;;4.53;1.38;;;;;;;17.80;64.38;101464.94;20954613;28;20047;-67
2022/06/21 09:27:22;;;;;;;5.78;1.30;;;;;;;18.19;61.76;101461.56;20941382;28;20044;-67
2022/06/21 09:37:57;;;;;;;6.30;1.40;;;;;;;18.56;61.06;101464.38;20946361;28;20048;-66
2022/06/21 09:48:49;;;;;;;7.65;1.40;;;;;;;19.15;61.70;101443.25;20941209;28;20052;-67
2022/06/21 09:59:28;;;;;;;6.70;1.90;;;;;;;18.80;63.08;101438.44;20954246;28;20079;-66
2022/06/21 10:10:08;;;;;;;10.05;1.95;;;;;;;19.05;63.87;101426.50;20941609;28;20472;-67
2022/06/21 10:20:36;;;;;;;4.13;1.80;;;;;;;19.27;62.71;101426.28;20925929;28;20063;-67
2022/06/21 10:31:35;;;;;;;10.82;2.10;;;;;;;19.75;58.86;101414.66;20936287;28;20500;-66
2022/06/21 10:42:47;;;;;;;5.07;1.92;;;;;;;20.18;57.01;101404.38;20928572;28;20075;-67
2022/06/21 10:53:27;;;;;;;4.75;1.60;;;;;;;20.63;56.54;101396.34;20951696;28;20067;-67
2022/06/21 11:04:04;;;;;;;3.23;1.70;;;;;;;21.09;55.77;101388.22;20951992;28;20044;-66
2022/06/21 11:14:40;;;;;;;5.55;1.70;;;;;;;21.51;54.66;101378.59;20951450;28;20065;-67
2022/06/21 11:25:44;;;;;;;4.47;1.48;;;;;;;21.90;50.09;101363.94;20946522;28;20043;-66
2022/06/21 11:36:15;;;;;;;6.03;1.80;;;;;;;22.59;54.03;101363.56;20966551;28;20052;-67
2022/06/21 11:46:51;;;;;;;6.32;1.33;;;;;;;22.42;52.50;101361.03;20953552;28;20592;-66
2022/06/21 11:57:25;;;;;;;2.83;1.20;;;;;;;22.79;56.95;101351.66;20946043;28;20167;-67
2022/06/21 12:08:01;;;;;;;6.72;1.42;;;;;;;22.84;51.77;101351.16;20947292;28;20421;-67
2022/06/21 12:18:29;;;;;;;3.78;1.35;;;;;;;22.71;52.81;101338.34;20957744;28;20040;-66
2022/06/21 12:28:54;;;;;;;3.78;1.15;;;;;;;22.37;60.78;101330.63;20950175;28;20056;-66
2022/06/21 12:39:42;;;;;;;7.80;1.50;;;;;;;22.16;52.57;101314.25;20943809;28;20048;-66
2022/06/21 12:50:35;;;;;;;5.55;1.27;;;;;;;21.97;49.77;101327.81;20942867;28;20043;-66
2022/06/21 13:01:04;;;;;;;23.48;3.92;;;;;;;21.80;58.83;101304.81;20954943;28;20473;-65
2022/06/21 13:11:36;;;;;;;3.30;1.30;;;;;;;22.07;53.02;101288.66;20939181;28;20044;-64
2022/06/21 13:22:36;;;;;;;3.08;1.20;;;;;;;22.18;50.95;101278.59;20943535;28;20041;-65
2022/06/21 13:33:18;;;;;;;4.35;1.30;;;;;;;22.29;51.66;101266.81;20938222;28;20658;-64
2022/06/21 13:43:44;;;;;;;3.50;1.15;;;;;;;22.22;50.97;101268.47;20958143;28;20527;-64
2022/06/21 13:54:26;;;;;;;6.57;1.15;;;;;;;22.22;50.80;101255.19;20925074;28;20048;-62
2022/06/21 14:05:36;;;;;;;4.03;1.10;;;;;;;22.04;51.04;101255.31;20914420;28;21434;-64
2022/06/21 14:16:09;;;;;;;2.63;1.30;;;;;;;22.13;56.32;101249.00;20873531;28;20051;-65
2022/06/21 14:26:47;;;;;;;4.32;1.10;;;;;;;22.44;51.76;101258.06;20920678;28;20049;-65
2022/06/21 14:38:05;;;;;;;4.63;1.10;;;;;;;22.56;48.76;101238.97;20923806;28;20036;-64
2022/06/21 14:48:47;;;;;;;2.15;0.95;;;;;;;22.44;51.93;101247.44;20849575;28;20048;-65
2022/06/21 14:59:31;;;;;;;1.60;0.80;;;;;;;22.68;46.99;101234.16;20928365;28;20041;-64
2022/06/21 15:10:28;;;;;;;3.13;0.80;;;;;;;22.72;54.75;101220.34;20920754;28;20475;-65
2022/06/21 15:21:03;;;;;;;2.67;0.90;;;;;;;22.90;46.90;101218.34;20917466;28;20054;-64
2022/06/21 15:31:24;;;;;;;4.60;1.23;;;;;;;22.98;54.62;101207.72;20918146;28;20468;-64
2022/06/21 15:41:58;;;;;;;1.60;0.70;;;;;;;22.93;49.39;101195.91;20930203;28;20094;-64
2022/06/21 15:52:31;;;;;;;4.75;0.80;;;;;;;23.14;45.56;101197.06;20933780;28;20061;-64
2022/06/21 16:03:00;;;;;;;4.10;0.90;;;;;;;23.61;46.88;101193.41;20947434;28;20045;-64
2022/06/21 16:13:30;;;;;;;3.27;1.10;;;;;;;24.03;49.63;101195.69;20927415;28;20131;-64
2022/06/21 16:24:14;;;;;;;3.25;0.98;;;;;;;24.48;53.38;101197.41;20922660;28;20048;-65
2022/06/21 16:34:43;;;;;;;2.58;0.70;;;;;;;24.22;50.21;101187.25;20894032;28;20067;-64
2022/06/21 16:45:34;;;;;;;5.97;0.90;;;;;;;23.76;45.90;101161.53;20940460;28;20573;-65
2022/06/21 16:55:57;;;;;;;5.57;1.33;;;;;;;23.55;58.33;101166.66;20935429;28;20048;-63
2022/06/21 17:06:24;;;;;;;7.30;2.03;;;;;;;23.07;59.05;101161.50;20923663;28;20044;-62
2022/06/21 17:17:07;;;;;;;8.18;2.20;;;;;;;22.65;61.58;101160.88;20919017;28;20408;-64
2022/06/21 17:27:53;;;;;;;8.60;1.80;;;;;;;22.21;62.00;101163.19;20929467;28;20048;-64
2022/06/21 17:38:31;;;;;;;8.98;1.90;;;;;;;21.89;63.47;101158.69;20925446;28;20036;-63
2022/06/21 17:48:58;;;;;;;7.95;1.95;;;;;;;21.59;64.55;101166.38;20932661;28;20448;-62
2022/06/21 17:59:29;;;;;;;5.97;1.80;;;;;;;21.26;63.93;101167.19;20934988;28;20048;-66
2022/06/21 18:10:18;;;;;;;7.22;1.75;;;;;;;21.00;63.62;101182.31;20933631;28;20041;-66
2022/06/21 18:20:52;;;;;;;5.30;1.57;;;;;;;20.72;64.29;101187.88;20951262;28;20124;-66
2022/06/21 18:31:27;;;;;;;6.13;1.50;;;;;;;20.52;65.48;101189.88;20951847;28;20294;-67
2022/06/21 18:42:08;;;;;;;7.18;2.13;;;;;;;20.39;66.01;101197.38;20932254;28;20048;-67
2022/06/21 18:52:38;;;;;;;7.05;1.80;;;;;;;20.16;65.09;101194.50;20944054;28;20564;-69
2022/06/21 19:03:26;;;;;;;8.70;1.90;;;;;;;19.91;64.99;101200.53;20930518;28;20037;-66
2022/06/21 19:13:52;;;;;;;3.22;1.27;;;;;;;19.77;65.69;101201.84;20931790;28;20558;-66
2022/06/21 19:24:21;;;;;;;4.63;1.67;;;;;;;19.53;65.72;101212.16;20945771;28;20041;-67
2022/06/21 19:35:02;;;;;;;4.72;1.80;;;;;;;19.41;66.55;101212.47;20969272;28;20029;-69
2022/06/21 19:45:36;;;;;;;6.93;2.20;;;;;;;19.24;66.60;101220.34;20957687;28;20048;-67
2022/06/21 19:56:02;;;;;;;5.93;2.08;;;;;;;19.13;67.10;101234.56;20947308;28;20302;-67
2022/06/21 20:06:27;;;;;;;5.97;1.90;;;;;;;19.03;67.73;101240.81;20946904;28;20489;-67
2022/06/21 20:16:57;;;;;;;7.38;2.17;;;;;;;18.94;68.68;101249.59;20951720;28;20489;-68
2022/06/21 20:27:36;;;;;;;5.67;2.50;;;;;;;18.73;69.48;101265.63;20965208;28;20124;-67
2022/06/21 20:38:08;;;;;;;5.05;2.50;;;;;;;18.55;69.96;101275.19;20950814;28;20067;-67
2022/06/21 20:48:46;;;;;;;11.68;2.83;;;;;;;18.42;71.93;101274.63;20940240;28;20045;-67
2022/06/21 20:59:36;;;;;;;7.57;3.30;;;;;;;18.29;72.95;101275.03;20956092;28;20044;-67
2022/06/21 21:10:01;;;;;;;7.50;2.60;;;;;;;18.06;70.54;101270.91;20939877;28;20083;-68
2022/06/21 21:20:29;;;;;;;9.95;3.17;;;;;;;17.96;71.14;101267.44;20939978;28;20040;-67
2022/06/21 21:30:58;;;;;;;6.70;3.13;;;;;;;17.81;72.59;101259.06;20935602;28;20505;-67
2022/06/21 21:41:28;;;;;;;11.48;4.97;;;;;;;17.65;73.70;101260.53;20937855;28;20071;-67
2022/06/21 21:51:54;;;;;;;9.35;4.05;;;;;;;17.55;72.54;101255.22;20949743;28;20452;-67
2022/06/21 22:02:22;;;;;;;7.03;3.83;;;;;;;17.35;72.67;101236.81;20933058;28;20041;-67
2022/06/21 22:12:56;;;;;;;9.20;4.45;;;;;;;17.20;73.56;101238.09;20938271;28;20048;-67
2022/06/21 22:23:24;;;;;;;5.63;4.22;;;;;;;17.14;73.81;101238.63;20931081;28;20366;-67
2022/06/21 22:33:48;;;;;;;8.32;4.63;;;;;;;17.05;72.86;101234.13;20936805;28;20572;-67
2022/06/21 22:44:17;;;;;;;9.40;4.15;;;;;;;17.00;73.53;101220.53;20948113;28;20043;-67
2022/06/21 22:54:43;;;;;;;9.02;4.15;;;;;;;16.89;73.14;101215.31;20963392;28;20040;-67
2022/06/21 23:05:18;;;;;;;8.48;4.07;;;;;;;16.85;74.70;101211.28;20947880;28;20412;-67
2022/06/21 23:15:52;;;;;;;10.07;4.00;;;;;;;16.76;73.85;101212.03;20961927;28;20485;-67
2022/06/21 23:26:36;;;;;;;12.40;4.97;;;;;;;16.63;75.17;101211.41;20958988;28;20037;-67
2022/06/21 23:36:58;;;;;;;8.68;4.55;;;;;;;16.52;73.53;101207.97;20950556;28;20362;-67
2022/06/21 23:47:27;;;;;;;8.85;4.28;;;;;;;16.37;75.44;101221.56;20942359;28;20044;-67
2022/06/21 23:57:52;;;;;;;10.85;4.45;;;;;;;16.32;73.88;101215.84;20957445;28;20504;-67
